Главная страница
METAR-TAF:

METAR-TAF

Аэропорты :

Минна, Нигерия

широта: 9-37N, долгота: 6-32E, высота над уровнем моря: 260 м

Текущие метеонаблюдения

Эта сводка был подготовлена 4 часа и 34 минут назад, в 22:00 UTC
Ветер 3 Узел от западный-юго-западный
Температура 31°C
Влажность 71%
Давление 1011 hPa
Видимость 10 км и более
Нет облачности ниже 1500 м, и нет кучево-дождевой облачности

METAR: DNMN 192200Z 24003KT CAVOK 31/25 Q1011

Время: 03:34 (02:34 UTC)


TAF: отсутствует

Метеонаблюдения и прогнозы для более 4000 аэропортов (сводки METAR и TAF).

Имеющиеся станции представлены на карте желтыми и красными точками.

Чтобы увидеть название станции, наведите на нее мышь.

Затем щелкните, чтобы увидеть метеонаблюдения и метеопрогнозы.

Управление картой: чтобы увеличить масштаб, щелкните зеленые кнопки с черным крестиком; чтобы уменьшить масштаб, щелкните зеленую кнопку с тире; для просмотра соседних карт щелкайте зеленые стрелки.


METAR-TAF: